createdAt,value
2022-09-20T00:02:02.064Z,12.53
2022-09-20T00:04:29.982Z,14.65
2022-09-20T00:06:57.727Z,12.27
2022-09-20T00:09:25.487Z,10.85
2022-09-20T00:11:54.760Z,10.90
2022-09-20T00:14:22.506Z,11.73
2022-09-20T00:16:50.377Z,13.73
2022-09-20T00:19:19.819Z,12.25
2022-09-20T00:21:47.524Z,14.48
2022-09-20T00:24:15.772Z,10.68
2022-09-20T00:26:43.485Z,12.50
2022-09-20T00:29:13.755Z,14.35
2022-09-20T00:31:42.811Z,11.93
2022-09-20T00:34:29.576Z,12.80
2022-09-20T00:36:57.283Z,14.88
2022-09-20T00:39:25.166Z,10.30
2022-09-20T00:41:52.942Z,12.70
2022-09-20T00:44:49.097Z,14.50
2022-09-20T00:47:23.344Z,12.07
2022-09-20T00:49:53.414Z,14.40
2022-09-20T00:52:21.572Z,13.32
2022-09-20T00:54:49.902Z,13.90
2022-09-20T00:57:17.994Z,13.63
2022-09-20T00:59:48.812Z,14.85
2022-09-20T01:02:18.623Z,13.20
2022-09-20T01:04:47.443Z,15.32
2022-09-20T01:07:17.761Z,12.93
2022-09-20T01:09:45.552Z,14.77
2022-09-20T01:12:15.968Z,16.17
2022-09-20T01:14:44.641Z,12.82
2022-09-20T01:17:14.223Z,14.40
2022-09-20T01:19:50.248Z,14.25
2022-09-20T01:22:23.693Z,15.25
2022-09-20T01:24:56.421Z,12.50
2022-09-20T01:27:37.628Z,13.65
2022-09-20T01:30:08.071Z,13.88
2022-09-20T01:32:45.715Z,13.10
2022-09-20T01:35:14.285Z,15.30
2022-09-20T01:37:51.093Z,14.45
2022-09-20T01:40:24.727Z,16.95
2022-09-20T01:43:01.732Z,14.02
2022-09-20T01:45:30.796Z,13.63
2022-09-20T01:48:09.254Z,12.13
2022-09-20T01:50:44.174Z,16.23
2022-09-20T01:53:41.431Z,13.05
2022-09-20T01:56:41.236Z,14.68
2022-09-20T01:59:36.545Z,16.70
2022-09-20T02:02:31.954Z,14.07
2022-09-20T02:05:24.356Z,13.65
2022-09-20T02:08:06.856Z,14.10
2022-09-20T02:11:01.756Z,13.65
2022-09-20T02:13:31.739Z,14.40
2022-09-20T02:16:17.377Z,15.13
2022-09-20T02:18:57.874Z,14.35
2022-09-20T02:21:31.600Z,14.02
2022-09-20T02:24:06.004Z,12.68
2022-09-20T02:26:40.405Z,13.80
2022-09-20T02:29:18.373Z,13.23
2022-09-20T02:31:59.521Z,14.23
2022-09-20T02:34:47.857Z,15.50
2022-09-20T02:37:30.657Z,12.90
2022-09-20T02:40:07.383Z,15.32
2022-09-20T02:42:38.830Z,14.90
2022-09-20T02:45:11.004Z,14.55
2022-09-20T02:47:41.607Z,12.40
2022-09-20T02:50:20.984Z,15.60
2022-09-20T02:52:57.939Z,15.70
2022-09-20T02:55:35.902Z,11.65
2022-09-20T02:58:18.890Z,13.20
2022-09-20T03:00:53.930Z,13.57
2022-09-20T03:03:31.990Z,12.00
2022-09-20T03:06:07.260Z,15.90
2022-09-20T03:08:39.989Z,15.18
2022-09-20T03:11:14.505Z,13.52
2022-09-20T03:14:05.371Z,14.32
2022-09-20T03:16:36.934Z,16.33
2022-09-20T03:19:16.694Z,11.82
2022-09-20T03:21:53.285Z,12.45
2022-09-20T03:24:30.058Z,12.87
2022-09-20T03:27:00.670Z,16.52
2022-09-20T03:29:39.186Z,12.38
2022-09-20T03:32:21.695Z,13.90
2022-09-20T03:34:58.472Z,14.10
2022-09-20T03:37:42.409Z,14.77
2022-09-20T03:40:30.481Z,14.43
2022-09-20T03:43:04.056Z,15.23
2022-09-20T03:45:42.253Z,14.45
2022-09-20T03:48:24.887Z,14.87
2022-09-20T03:51:10.941Z,23.35
2022-09-20T03:53:59.957Z,20.65
2022-09-20T03:56:59.050Z,18.65
2022-09-20T03:59:37.641Z,17.98
2022-09-20T04:02:19.265Z,19.75
2022-09-20T04:04:52.091Z,17.10
2022-09-20T04:07:25.217Z,17.37
2022-09-20T04:10:03.203Z,14.80
2022-09-20T04:12:36.758Z,18.70
2022-09-20T04:15:17.548Z,16.20
2022-09-20T04:17:50.734Z,17.27
2022-09-20T04:20:21.898Z,18.35
2022-09-20T04:22:52.817Z,17.45
2022-09-20T04:25:23.684Z,18.00
2022-09-20T04:27:54.532Z,16.20
2022-09-20T04:30:27.858Z,18.92
2022-09-20T04:33:00.629Z,20.92
2022-09-20T04:35:54.890Z,20.33
2022-09-20T04:38:24.887Z,19.27
2022-09-20T04:41:30.728Z,19.77
2022-09-20T04:44:19.997Z,18.35
2022-09-20T04:47:23.185Z,22.23
2022-09-20T04:50:32.590Z,21.42
2022-09-20T04:53:24.716Z,20.53
2022-09-20T04:55:56.934Z,17.90
2022-09-20T04:58:36.950Z,18.30
2022-09-20T05:01:40.698Z,18.15
2022-09-20T05:04:41.188Z,19.67
2022-09-20T05:07:36.641Z,17.45
2022-09-20T05:10:19.161Z,20.40
2022-09-20T05:13:09.068Z,18.52
2022-09-20T05:15:43.389Z,17.53
2022-09-20T05:18:48.404Z,16.38
2022-09-20T05:21:38.769Z,16.90
2022-09-20T05:24:13.307Z,15.45
2022-09-20T05:26:52.849Z,16.67
2022-09-20T05:29:25.832Z,18.57
2022-09-20T05:32:00.415Z,16.63
2022-09-20T05:34:33.224Z,19.33
2022-09-20T05:37:07.955Z,16.42
2022-09-20T05:39:39.480Z,18.17
2022-09-20T05:42:19.348Z,18.50
2022-09-20T05:44:57.006Z,17.60
2022-09-20T05:47:36.615Z,16.83
2022-09-20T05:50:18.044Z,16.20
2022-09-20T05:52:52.858Z,17.75
2022-09-20T05:55:43.574Z,18.58
2022-09-20T05:58:26.928Z,16.10
2022-09-20T06:00:59.250Z,17.75
2022-09-20T06:03:35.181Z,16.05
2022-09-20T06:06:08.351Z,17.43
2022-09-20T06:08:58.027Z,17.25
2022-09-20T06:11:59.808Z,17.52
2022-09-20T06:14:40.335Z,17.25
2022-09-20T06:17:17.375Z,17.42
2022-09-20T06:19:47.787Z,16.17
2022-09-20T06:22:19.208Z,16.42
2022-09-20T06:24:49.469Z,16.60
2022-09-20T06:27:22.001Z,17.13
2022-09-20T06:29:54.429Z,22.00
2022-09-20T06:32:22.292Z,16.70
2022-09-20T06:34:50.113Z,36.03
2022-09-20T06:37:49.190Z,15.23
2022-09-20T06:40:50.661Z,18.38
2022-09-20T06:43:19.358Z,18.05
2022-09-20T06:45:48.628Z,16.60
2022-09-20T06:48:16.427Z,17.38
2022-09-20T06:50:45.391Z,18.73
2022-09-20T06:53:17.592Z,14.50
2022-09-20T06:55:46.109Z,18.75
2022-09-20T06:58:13.816Z,15.32
2022-09-20T07:00:41.600Z,15.10
2022-09-20T07:03:12.624Z,15.98
2022-09-20T07:05:40.684Z,16.27
2022-09-20T07:08:08.429Z,15.35
2022-09-20T07:10:36.531Z,17.60
2022-09-20T07:13:04.247Z,15.07
2022-09-20T07:15:33.479Z,16.25
2022-09-20T07:18:01.295Z,17.20
2022-09-20T07:20:30.412Z,15.23
2022-09-20T07:22:58.322Z,14.60
2022-09-20T07:25:26.077Z,14.02
2022-09-20T07:27:54.109Z,14.27
2022-09-20T07:30:21.944Z,12.80
2022-09-20T07:32:50.302Z,11.07
2022-09-20T07:35:18.209Z,11.23
2022-09-20T07:37:47.883Z,9.80
2022-09-20T07:40:16.485Z,14.23
2022-09-20T07:42:45.977Z,12.05
2022-09-20T07:45:13.712Z,9.18
2022-09-20T07:47:42.111Z,11.20
2022-09-20T07:50:11.650Z,10.00
2022-09-20T07:52:39.445Z,9.40
2022-09-20T07:55:09.676Z,8.00
2022-09-20T07:57:38.311Z,8.52
2022-09-20T08:00:07.976Z,9.68
2022-09-20T08:02:40.271Z,8.80
2022-09-20T08:05:08.718Z,8.68
2022-09-20T08:07:36.500Z,10.48
2022-09-20T08:10:04.820Z,9.60
2022-09-20T08:15:22.771Z,6.68
2022-09-20T08:17:50.599Z,7.68
2022-09-20T08:20:19.671Z,9.00
2022-09-20T08:23:06.408Z,7.13
2022-09-20T08:25:35.989Z,7.45
2022-09-20T08:28:05.584Z,16.30
2022-09-20T08:30:33.556Z,9.13
2022-09-20T08:33:02.196Z,10.00
2022-09-20T08:35:30.604Z,6.90
2022-09-20T08:39:57.083Z,8.35
2022-09-20T08:40:47.253Z,7.03
2022-09-20T08:43:22.302Z,8.15
2022-09-20T08:45:50.817Z,6.72
2022-09-20T08:48:18.977Z,8.00
2022-09-20T08:50:46.664Z,9.05
2022-09-20T08:53:20.978Z,8.68
2022-09-20T08:55:49.657Z,6.43
2022-09-20T08:58:19.353Z,6.75
2022-09-20T09:00:47.834Z,8.43
2022-09-20T09:03:17.907Z,7.22
2022-09-20T09:05:47.589Z,6.55
2022-09-20T09:08:17.090Z,6.47
2022-09-20T09:10:47.200Z,8.82
2022-09-20T09:13:21.830Z,8.90
2022-09-20T09:15:54.076Z,7.80
2022-09-20T09:18:21.803Z,11.20
2022-09-20T09:20:49.628Z,6.43
2022-09-20T09:23:25.185Z,10.48
2022-09-20T09:25:53.896Z,5.40
2022-09-20T09:28:24.965Z,7.18
2022-09-20T09:30:52.710Z,7.75
2022-09-20T09:33:26.602Z,6.32
2022-09-20T09:36:00.159Z,6.25
2022-09-20T09:38:30.565Z,5.27
2022-09-20T09:41:00.033Z,5.43
2022-09-20T09:43:32.338Z,4.47
2022-09-20T09:46:19.031Z,6.95
2022-09-20T09:48:50.115Z,5.15
2022-09-20T09:51:20.152Z,5.75
2022-09-20T09:53:49.641Z,6.50
2022-09-20T09:56:27.020Z,5.88
2022-09-20T09:59:10.550Z,7.00
2022-09-20T10:01:49.007Z,15.18
2022-09-20T10:04:19.805Z,8.05
2022-09-20T10:06:52.433Z,6.97
2022-09-20T10:09:30.301Z,7.28
2022-09-20T10:12:17.636Z,6.28
2022-09-20T10:15:01.282Z,4.78
2022-09-20T10:17:46.521Z,7.13
2022-09-20T10:20:31.089Z,6.03
2022-09-20T10:23:39.378Z,5.57
2022-09-20T10:26:00.783Z,6.35
2022-09-20T10:28:48.294Z,5.22
2022-09-20T10:31:31.127Z,5.72
2022-09-20T10:34:10.710Z,5.65
2022-09-20T10:36:44.415Z,5.33
2022-09-20T10:39:15.058Z,5.57
2022-09-20T10:42:06.857Z,5.65
2022-09-20T10:44:54.142Z,4.27
2022-09-20T10:47:28.806Z,4.10
2022-09-20T10:50:01.694Z,4.32
2022-09-20T10:52:38.472Z,5.70
2022-09-20T10:55:28.101Z,4.97
2022-09-20T10:58:19.083Z,4.32
2022-09-20T11:00:52.714Z,3.65
2022-09-20T11:03:32.901Z,4.55
2022-09-20T11:06:10.835Z,4.60
2022-09-20T11:08:39.254Z,6.13
2022-09-20T11:11:10.360Z,4.15
2022-09-20T11:13:42.017Z,3.97
2022-09-20T11:16:14.679Z,4.30
2022-09-20T11:18:47.644Z,6.33
2022-09-20T11:21:20.050Z,5.03
2022-09-20T11:23:52.626Z,5.22
2022-09-20T11:26:26.698Z,5.10
2022-09-20T11:28:56.151Z,7.65
2022-09-20T11:31:27.345Z,4.25
2022-09-20T11:33:59.839Z,7.85
2022-09-20T11:36:33.299Z,3.40
2022-09-20T11:39:05.165Z,15.75
2022-09-20T11:41:33.373Z,4.68
2022-09-20T11:44:06.911Z,3.75
2022-09-20T11:46:36.967Z,4.00
2022-09-20T11:49:12.434Z,4.70
2022-09-20T11:52:21.852Z,10.97
2022-09-20T11:55:11.989Z,3.43
2022-09-20T11:57:40.120Z,4.00
2022-09-20T12:00:10.142Z,5.60
2022-09-20T12:02:46.197Z,6.07
2022-09-20T12:05:28.264Z,4.10
2022-09-20T12:07:57.493Z,3.30
2022-09-20T12:10:27.566Z,5.13
2022-09-20T12:12:58.464Z,4.23
2022-09-20T12:15:28.653Z,3.08
2022-09-20T12:18:37.857Z,3.42
2022-09-20T12:21:16.357Z,3.17
2022-09-20T12:24:23.565Z,5.05
2022-09-20T12:26:55.832Z,2.78
2022-09-20T12:30:15.001Z,3.65
2022-09-20T12:32:48.420Z,2.70
2022-09-20T12:35:55.847Z,3.45
2022-09-20T12:38:31.219Z,2.33
2022-09-20T12:41:03.871Z,3.13
2022-09-20T12:43:33.230Z,3.57
2022-09-20T12:46:06.333Z,2.80
2022-09-20T12:48:38.406Z,2.90
2022-09-20T12:51:21.585Z,4.07
2022-09-20T12:54:08.066Z,21.42
2022-09-20T12:56:37.543Z,2.65
2022-09-20T12:59:07.391Z,4.78
2022-09-20T13:01:40.441Z,3.10
2022-09-20T13:04:55.212Z,1.92
2022-09-20T13:07:43.781Z,2.30
2022-09-20T13:10:29.095Z,2.50
2022-09-20T13:13:01.203Z,2.60
2022-09-20T13:15:29.123Z,6.32
2022-09-20T13:17:59.064Z,6.32
2022-09-20T13:20:29.900Z,2.30
2022-09-20T13:23:00.285Z,2.53
2022-09-20T13:25:29.822Z,3.70
2022-09-20T13:28:04.207Z,3.70
2022-09-20T13:30:32.863Z,3.97
2022-09-20T13:33:17.305Z,4.03
2022-09-20T13:35:47.012Z,3.03
2022-09-20T13:38:16.051Z,3.97
2022-09-20T13:40:47.433Z,2.60
2022-09-20T13:43:25.280Z,3.38
2022-09-20T13:45:55.040Z,2.70
2022-09-20T13:48:25.593Z,3.45
2022-09-20T13:50:53.938Z,3.08
2022-09-20T13:53:40.066Z,4.80
2022-09-20T13:56:11.767Z,3.27
2022-09-20T13:58:39.613Z,3.13
2022-09-20T14:01:09.483Z,2.53
2022-09-20T14:03:37.538Z,3.80
2022-09-20T14:06:08.401Z,3.55
2022-09-20T14:08:38.991Z,3.78
2022-09-20T14:11:08.554Z,3.97
2022-09-20T14:13:40.097Z,4.23
2022-09-20T14:16:08.267Z,3.23
2022-09-20T14:18:36.545Z,3.38
2022-09-20T14:21:06.861Z,3.40
2022-09-20T14:23:34.707Z,3.90
2022-09-20T14:26:10.243Z,2.83
2022-09-20T14:28:39.345Z,2.85
2022-09-20T14:31:08.861Z,3.70
2022-09-20T14:33:42.127Z,2.75
2022-09-20T14:36:14.551Z,3.93
2022-09-20T14:38:44.464Z,3.67
2022-09-20T14:41:12.768Z,3.43
2022-09-20T14:43:42.232Z,7.47
2022-09-20T14:46:18.642Z,3.42
2022-09-20T14:48:46.466Z,4.88
2022-09-20T14:51:25.420Z,5.22
2022-09-20T14:53:55.071Z,2.70
2022-09-20T14:56:34.698Z,4.38
2022-09-20T14:59:19.757Z,2.67
2022-09-20T15:01:57.068Z,4.18
2022-09-20T15:04:26.852Z,2.72
2022-09-20T15:06:55.316Z,4.38
2022-09-20T15:09:23.799Z,3.92
2022-09-20T15:12:07.299Z,3.30
2022-09-20T15:14:38.075Z,3.35
2022-09-20T15:17:06.288Z,3.28
2022-09-20T15:19:34.460Z,2.27
2022-09-20T15:22:02.272Z,3.58
2022-09-20T15:24:29.999Z,4.20
2022-09-20T15:26:57.900Z,3.08
2022-09-20T15:29:26.014Z,4.43
2022-09-20T15:31:55.236Z,3.97
2022-09-20T15:34:23.165Z,4.63
2022-09-20T15:36:51.640Z,6.10
2022-09-20T15:39:21.008Z,6.15
2022-09-20T15:41:49.433Z,5.57
2022-09-20T15:44:17.727Z,3.00
2022-09-20T15:46:45.493Z,3.60
2022-09-20T15:49:14.564Z,7.07
2022-09-20T15:51:42.303Z,4.38
2022-09-20T15:54:15.837Z,4.55
2022-09-20T15:56:43.603Z,5.90
2022-09-20T15:59:13.334Z,4.15
2022-09-20T16:01:42.310Z,4.50
2022-09-20T16:04:11.110Z,3.97
2022-09-20T16:06:41.330Z,4.93
2022-09-20T16:09:09.497Z,3.67
2022-09-20T16:11:38.694Z,3.80
2022-09-20T16:14:06.832Z,4.18
2022-09-20T16:16:39.929Z,4.20
2022-09-20T16:19:23.625Z,4.72
2022-09-20T16:21:59.118Z,3.30
2022-09-20T16:24:28.586Z,3.47
2022-09-20T16:26:56.655Z,3.63
2022-09-20T16:29:25.775Z,3.08
2022-09-20T16:31:54.628Z,2.85
2022-09-20T16:34:23.901Z,4.93
2022-09-20T16:36:55.614Z,5.75
2022-09-20T16:39:26.151Z,3.00
2022-09-20T16:41:53.951Z,3.35
2022-09-20T16:44:21.653Z,3.88
2022-09-20T16:46:49.464Z,3.92
2022-09-20T16:49:17.648Z,3.58
2022-09-20T16:51:46.286Z,2.92
2022-09-20T16:54:17.102Z,3.28
2022-09-20T16:56:46.602Z,2.85
2022-09-20T16:59:15.596Z,4.37
2022-09-20T17:01:44.348Z,4.88
2022-09-20T17:04:13.984Z,3.63
2022-09-20T17:06:43.198Z,3.90
2022-09-20T17:09:11.461Z,3.22
2022-09-20T17:11:43.622Z,2.50
2022-09-20T17:14:11.390Z,3.90
2022-09-20T17:16:40.777Z,3.38
2022-09-20T17:19:10.975Z,3.80
2022-09-20T17:21:42.359Z,4.15
2022-09-20T17:24:10.450Z,5.82
2022-09-20T17:26:40.855Z,5.60
2022-09-20T17:29:10.650Z,4.00
2022-09-20T17:31:41.630Z,3.08
2022-09-20T17:34:10.960Z,3.67
2022-09-20T17:36:40.428Z,3.63
2022-09-20T17:39:09.981Z,5.50
2022-09-20T17:41:38.364Z,5.22
2022-09-20T17:44:08.269Z,5.10
2022-09-20T17:46:38.035Z,4.53
2022-09-20T17:49:07.594Z,5.07
2022-09-20T17:51:38.197Z,4.63
2022-09-20T17:54:06.209Z,4.80
2022-09-20T17:56:35.652Z,4.53
2022-09-20T17:59:04.862Z,5.80
2022-09-20T18:01:35.522Z,5.82
2022-09-20T18:04:04.490Z,7.35
2022-09-20T18:06:34.277Z,6.25
2022-09-20T18:09:04.534Z,6.22
2022-09-20T18:11:33.802Z,6.97
2022-09-20T18:14:02.053Z,9.02
2022-09-20T18:16:30.867Z,9.30
2022-09-20T18:19:00.248Z,9.38
2022-09-20T18:21:30.052Z,7.45
2022-09-20T18:23:58.977Z,11.68
2022-09-20T18:26:29.995Z,10.07
2022-09-20T18:29:00.201Z,9.27
2022-09-20T18:31:32.367Z,10.52
2022-09-20T18:34:01.946Z,10.90
2022-09-20T18:36:30.907Z,9.90
2022-09-20T18:38:59.500Z,7.80
2022-09-20T18:41:29.046Z,9.13
2022-09-20T18:43:57.135Z,9.63
2022-09-20T18:46:26.858Z,11.27
2022-09-20T18:48:55.827Z,10.63
2022-09-20T18:51:25.925Z,11.40
2022-09-20T18:53:53.861Z,7.65
2022-09-20T18:56:24.043Z,9.73
2022-09-20T18:58:52.848Z,9.05
2022-09-20T19:01:42.693Z,8.68
2022-09-20T19:04:24.362Z,8.13
2022-09-20T19:06:59.101Z,8.15
2022-09-20T19:09:32.528Z,8.33
2022-09-20T19:12:02.783Z,8.88
2022-09-20T19:14:48.317Z,8.05
2022-09-20T19:17:20.278Z,10.98
2022-09-20T19:19:51.588Z,7.30
2022-09-20T19:22:29.629Z,6.60
2022-09-20T19:25:12.409Z,8.57
2022-09-20T19:27:41.208Z,8.90
2022-09-20T19:30:13.101Z,7.20
2022-09-20T19:32:41.322Z,8.75
2022-09-20T19:35:17.234Z,8.57
2022-09-20T19:37:58.079Z,9.73
2022-09-20T19:40:31.238Z,9.50
2022-09-20T19:43:14.420Z,7.93
2022-09-20T19:45:49.550Z,8.05
2022-09-20T19:48:20.401Z,8.40
2022-09-20T19:50:52.138Z,10.45
2022-09-20T19:53:24.117Z,9.75
2022-09-20T19:55:55.173Z,11.13
2022-09-20T19:58:23.770Z,11.67
2022-09-20T20:00:52.579Z,10.32
2022-09-20T20:03:23.512Z,9.93
2022-09-20T20:05:56.092Z,10.50
2022-09-20T20:08:32.849Z,10.15
2022-09-20T20:11:06.175Z,11.13
2022-09-20T20:13:54.667Z,9.83
2022-09-20T20:16:28.169Z,11.45
2022-09-20T20:19:07.045Z,8.55
2022-09-20T20:21:41.190Z,9.02
2022-09-20T20:24:20.555Z,11.57
2022-09-20T20:26:48.281Z,11.88
2022-09-20T20:29:16.013Z,11.95
2022-09-20T20:31:43.790Z,9.95
2022-09-20T20:34:16.012Z,10.20
2022-09-20T20:36:44.294Z,9.85
2022-09-20T20:39:13.368Z,10.02
2022-09-20T20:41:41.536Z,12.43
2022-09-20T20:44:09.712Z,10.40
2022-09-20T20:46:38.060Z,9.38
2022-09-20T20:49:06.029Z,10.87
2022-09-20T20:51:33.860Z,11.25
2022-09-20T20:54:01.598Z,11.20
2022-09-20T20:56:31.282Z,11.52
2022-09-20T20:59:00.610Z,9.77
2022-09-20T21:01:30.508Z,13.38
2022-09-20T21:03:59.566Z,11.03
2022-09-20T21:06:28.599Z,13.05
2022-09-20T21:08:56.661Z,7.95
2022-09-20T21:11:25.957Z,9.90
2022-09-20T21:13:57.073Z,9.57
2022-09-20T21:16:26.163Z,8.65
2022-09-20T21:18:54.008Z,9.43
2022-09-20T21:21:23.472Z,13.15
2022-09-20T21:23:52.787Z,9.57
2022-09-20T21:26:21.278Z,10.10
2022-09-20T21:28:52.070Z,8.88
2022-09-20T21:31:23.095Z,11.32
2022-09-20T21:33:51.088Z,9.80
2022-09-20T21:36:20.407Z,10.60
2022-09-20T21:38:48.292Z,9.70
2022-09-20T21:41:17.649Z,10.00
2022-09-20T21:43:46.383Z,10.70
2022-09-20T21:46:14.882Z,10.38
2022-09-20T21:48:44.184Z,9.87
2022-09-20T21:51:13.741Z,10.15
2022-09-20T21:53:42.249Z,10.63
2022-09-20T21:56:11.401Z,10.73
2022-09-20T21:58:39.983Z,9.43
2022-09-20T22:01:11.556Z,9.95
2022-09-20T22:03:40.784Z,10.77
2022-09-20T22:06:12.049Z,8.70
2022-09-20T22:08:41.352Z,11.13
2022-09-20T22:11:14.901Z,10.32
2022-09-20T22:13:43.536Z,10.40
2022-09-20T22:16:12.856Z,10.73
2022-09-20T22:18:42.022Z,10.00
2022-09-20T22:21:13.018Z,8.33
2022-09-20T22:23:41.005Z,9.57
2022-09-20T22:26:10.479Z,9.52
2022-09-20T22:28:38.725Z,10.65
2022-09-20T22:31:08.473Z,8.32
2022-09-20T22:33:36.904Z,9.10
2022-09-20T22:36:08.268Z,9.07
2022-09-20T22:38:37.483Z,8.02
2022-09-20T22:41:06.088Z,10.02
2022-09-20T22:43:34.363Z,10.18
2022-09-20T22:46:06.089Z,10.82
2022-09-20T22:48:34.512Z,9.70
2022-09-20T22:51:02.676Z,9.40
2022-09-20T22:53:31.365Z,10.23
2022-09-20T22:56:08.480Z,11.43
2022-09-20T22:58:37.570Z,11.20
2022-09-20T23:01:07.614Z,8.52
2022-09-20T23:03:35.828Z,10.10
2022-09-20T23:06:04.124Z,10.75
2022-09-20T23:08:33.186Z,10.55
2022-09-20T23:11:03.686Z,8.90
2022-09-20T23:13:33.259Z,10.00
2022-09-20T23:16:00.988Z,10.70
2022-09-20T23:18:28.700Z,11.02
2022-09-20T23:21:00.337Z,8.13
2022-09-20T23:23:28.108Z,9.68
2022-09-20T23:25:56.137Z,9.25
2022-09-20T23:28:27.270Z,9.30
2022-09-20T23:31:04.528Z,8.43
2022-09-20T23:33:32.780Z,10.52
2022-09-20T23:36:00.801Z,9.50
2022-09-20T23:38:28.581Z,9.02
2022-09-20T23:40:56.472Z,10.45
2022-09-20T23:43:24.360Z,12.05
2022-09-20T23:45:52.099Z,10.07
2022-09-20T23:48:21.204Z,10.75
2022-09-20T23:50:48.965Z,10.25
2022-09-20T23:53:16.745Z,9.98
2022-09-20T23:55:44.477Z,9.50
2022-09-20T23:58:12.465Z,9.23
